sensor_id;sensor_type;location;lat;lon;timestamp;temperature;humidity
23289;DHT22;11813;50.834;4.280;2023-09-18T00:00:48;23.30;99.90
23289;DHT22;11813;50.834;4.280;2023-09-18T00:03:21;23.30;99.90
23289;DHT22;11813;50.834;4.280;2023-09-18T00:05:52;23.30;99.90
23289;DHT22;11813;50.834;4.280;2023-09-18T00:08:19;23.20;99.90
23289;DHT22;11813;50.834;4.280;2023-09-18T00:10:53;22.90;99.90
23289;DHT22;11813;50.834;4.280;2023-09-18T00:13:19;22.90;99.90
23289;DHT22;11813;50.834;4.280;2023-09-18T00:15:45;22.90;99.90
23289;DHT22;11813;50.834;4.280;2023-09-18T00:18:13;23.00;99.90
23289;DHT22;11813;50.834;4.280;2023-09-18T00:20:40;23.00;99.90
23289;DHT22;11813;50.834;4.280;2023-09-18T00:23:07;23.00;99.90
23289;DHT22;11813;50.834;4.280;2023-09-18T00:25:33;23.10;99.90
23289;DHT22;11813;50.834;4.280;2023-09-18T00:27:59;23.10;99.90
23289;DHT22;11813;50.834;4.280;2023-09-18T00:30:24;23.10;99.90
23289;DHT22;11813;50.834;4.280;2023-09-18T00:32:50;23.10;99.90
23289;DHT22;11813;50.834;4.280;2023-09-18T00:35:16;23.10;99.90
23289;DHT22;11813;50.834;4.280;2023-09-18T00:37:41;23.10;99.90
23289;DHT22;11813;50.834;4.280;2023-09-18T00:40:09;22.90;99.90
23289;DHT22;11813;50.834;4.280;2023-09-18T00:42:34;22.90;99.90
23289;DHT22;11813;50.834;4.280;2023-09-18T00:45:00;22.60;99.90
23289;DHT22;11813;50.834;4.280;2023-09-18T00:47:26;22.50;99.90
23289;DHT22;11813;50.834;4.280;2023-09-18T00:49:52;22.60;99.90
23289;DHT22;11813;50.834;4.280;2023-09-18T00:52:19;22.60;99.90
23289;DHT22;11813;50.834;4.280;2023-09-18T00:54:47;22.50;99.90
23289;DHT22;11813;50.834;4.280;2023-09-18T00:57:13;22.50;99.90
23289;DHT22;11813;50.834;4.280;2023-09-18T00:59:39;22.50;99.90
23289;DHT22;11813;50.834;4.280;2023-09-18T01:02:05;22.50;99.90
23289;DHT22;11813;50.834;4.280;2023-09-18T01:04:33;22.50;99.90
23289;DHT22;11813;50.834;4.280;2023-09-18T01:07:02;22.60;99.90
23289;DHT22;11813;50.834;4.280;2023-09-18T01:09:32;22.60;99.90
23289;DHT22;11813;50.834;4.280;2023-09-18T01:17:10;22.70;99.90
23289;DHT22;11813;50.834;4.280;2023-09-18T01:19:44;22.70;99.90
23289;DHT22;11813;50.834;4.280;2023-09-18T01:22:12;22.60;99.90
23289;DHT22;11813;50.834;4.280;2023-09-18T01:24:39;22.70;99.90
23289;DHT22;11813;50.834;4.280;2023-09-18T01:27:08;22.70;99.90
23289;DHT22;11813;50.834;4.280;2023-09-18T01:29:34;22.80;99.90
23289;DHT22;11813;50.834;4.280;2023-09-18T01:31:59;22.80;99.90
23289;DHT22;11813;50.834;4.280;2023-09-18T01:34:31;22.90;99.90
23289;DHT22;11813;50.834;4.280;2023-09-18T01:36:59;22.80;99.90
23289;DHT22;11813;50.834;4.280;2023-09-18T01:39:27;22.80;99.90
23289;DHT22;11813;50.834;4.280;2023-09-18T01:41:58;22.80;99.90
23289;DHT22;11813;50.834;4.280;2023-09-18T01:44:24;22.60;99.90
23289;DHT22;11813;50.834;4.280;2023-09-18T01:46:51;22.60;99.90
23289;DHT22;11813;50.834;4.280;2023-09-18T01:49:32;22.60;99.90
23289;DHT22;11813;50.834;4.280;2023-09-18T01:51:58;22.60;99.90
23289;DHT22;11813;50.834;4.280;2023-09-18T01:54:24;22.60;99.90
23289;DHT22;11813;50.834;4.280;2023-09-18T01:56:51;22.60;99.90
23289;DHT22;11813;50.834;4.280;2023-09-18T01:59:21;22.60;99.90
23289;DHT22;11813;50.834;4.280;2023-09-18T02:01:47;22.70;99.90
23289;DHT22;11813;50.834;4.280;2023-09-18T02:04:13;22.60;99.90
23289;DHT22;11813;50.834;4.280;2023-09-18T02:06:39;22.60;99.90
23289;DHT22;11813;50.834;4.280;2023-09-18T02:09:05;22.60;99.90
23289;DHT22;11813;50.834;4.280;2023-09-18T02:11:33;22.60;99.90
23289;DHT22;11813;50.834;4.280;2023-09-18T02:13:59;22.50;99.90
23289;DHT22;11813;50.834;4.280;2023-09-18T02:16:24;22.40;99.90
23289;DHT22;11813;50.834;4.280;2023-09-18T02:18:54;22.40;99.90
23289;DHT22;11813;50.834;4.280;2023-09-18T02:21:21;22.40;99.90
23289;DHT22;11813;50.834;4.280;2023-09-18T02:23:53;22.40;99.90
23289;DHT22;11813;50.834;4.280;2023-09-18T02:26:20;22.40;99.90
23289;DHT22;11813;50.834;4.280;2023-09-18T02:28:46;22.40;99.90
23289;DHT22;11813;50.834;4.280;2023-09-18T02:31:12;22.40;99.90
23289;DHT22;11813;50.834;4.280;2023-09-18T02:33:38;22.30;99.90
23289;DHT22;11813;50.834;4.280;2023-09-18T02:36:05;22.30;99.90
23289;DHT22;11813;50.834;4.280;2023-09-18T02:38:30;22.20;99.90
23289;DHT22;11813;50.834;4.280;2023-09-18T02:40:56;22.20;99.90
23289;DHT22;11813;50.834;4.280;2023-09-18T02:43:23;22.20;99.90
23289;DHT22;11813;50.834;4.280;2023-09-18T02:45:49;22.20;99.90
23289;DHT22;11813;50.834;4.280;2023-09-18T02:48:15;22.20;99.90
23289;DHT22;11813;50.834;4.280;2023-09-18T02:50:41;22.20;99.90
23289;DHT22;11813;50.834;4.280;2023-09-18T02:53:11;22.30;99.90
23289;DHT22;11813;50.834;4.280;2023-09-18T02:55:41;22.30;99.90
23289;DHT22;11813;50.834;4.280;2023-09-18T02:58:07;22.20;99.90
23289;DHT22;11813;50.834;4.280;2023-09-18T03:00:34;22.20;99.90
23289;DHT22;11813;50.834;4.280;2023-09-18T03:03:00;22.20;99.90
23289;DHT22;11813;50.834;4.280;2023-09-18T03:05:25;22.20;99.90
23289;DHT22;11813;50.834;4.280;2023-09-18T03:07:52;22.20;99.90
23289;DHT22;11813;50.834;4.280;2023-09-18T03:10:17;22.10;99.90
23289;DHT22;11813;50.834;4.280;2023-09-18T03:12:47;22.10;99.90
23289;DHT22;11813;50.834;4.280;2023-09-18T03:15:12;22.00;99.90
23289;DHT22;11813;50.834;4.280;2023-09-18T03:17:38;22.10;99.90
23289;DHT22;11813;50.834;4.280;2023-09-18T03:20:07;22.10;99.90
23289;DHT22;11813;50.834;4.280;2023-09-18T03:22:32;22.10;99.90
23289;DHT22;11813;50.834;4.280;2023-09-18T03:24:58;22.20;99.90
23289;DHT22;11813;50.834;4.280;2023-09-18T03:27:24;22.10;99.90
23289;DHT22;11813;50.834;4.280;2023-09-18T03:29:54;22.10;99.90
23289;DHT22;11813;50.834;4.280;2023-09-18T03:32:20;21.80;99.90
23289;DHT22;11813;50.834;4.280;2023-09-18T03:34:46;21.80;99.90
23289;DHT22;11813;50.834;4.280;2023-09-18T03:37:11;21.60;99.90
23289;DHT22;11813;50.834;4.280;2023-09-18T03:39:37;21.50;99.90
23289;DHT22;11813;50.834;4.280;2023-09-18T03:42:02;21.50;99.90
23289;DHT22;11813;50.834;4.280;2023-09-18T03:44:28;21.50;99.90
23289;DHT22;11813;50.834;4.280;2023-09-18T03:46:54;21.40;99.90
23289;DHT22;11813;50.834;4.280;2023-09-18T03:49:20;21.50;99.90
23289;DHT22;11813;50.834;4.280;2023-09-18T03:51:46;21.50;99.90
23289;DHT22;11813;50.834;4.280;2023-09-18T03:54:11;21.40;99.90
23289;DHT22;11813;50.834;4.280;2023-09-18T03:56:37;21.30;99.90
23289;DHT22;11813;50.834;4.280;2023-09-18T03:59:03;21.20;99.90
23289;DHT22;11813;50.834;4.280;2023-09-18T04:01:30;21.10;99.90
23289;DHT22;11813;50.834;4.280;2023-09-18T04:03:56;21.20;99.90
23289;DHT22;11813;50.834;4.280;2023-09-18T04:06:21;21.10;99.90
23289;DHT22;11813;50.834;4.280;2023-09-18T04:08:49;21.00;99.90
23289;DHT22;11813;50.834;4.280;2023-09-18T04:11:15;21.00;99.90
23289;DHT22;11813;50.834;4.280;2023-09-18T04:13:41;21.00;99.90
23289;DHT22;11813;50.834;4.280;2023-09-18T04:16:06;20.90;99.90
23289;DHT22;11813;50.834;4.280;2023-09-18T04:18:33;21.00;99.90
23289;DHT22;11813;50.834;4.280;2023-09-18T04:20:58;20.90;99.90
23289;DHT22;11813;50.834;4.280;2023-09-18T04:23:26;20.90;99.90
23289;DHT22;11813;50.834;4.280;2023-09-18T04:25:53;20.90;99.90
23289;DHT22;11813;50.834;4.280;2023-09-18T04:28:21;20.90;99.90
23289;DHT22;11813;50.834;4.280;2023-09-18T04:30:47;20.80;99.90
23289;DHT22;11813;50.834;4.280;2023-09-18T04:33:14;20.70;99.90
23289;DHT22;11813;50.834;4.280;2023-09-18T04:35:40;20.70;99.90
23289;DHT22;11813;50.834;4.280;2023-09-18T04:38:08;20.60;99.90
23289;DHT22;11813;50.834;4.280;2023-09-18T04:40:36;20.60;99.90
23289;DHT22;11813;50.834;4.280;2023-09-18T04:43:02;20.60;99.90
23289;DHT22;11813;50.834;4.280;2023-09-18T04:45:32;20.60;99.90
23289;DHT22;11813;50.834;4.280;2023-09-18T04:47:58;20.60;99.90
23289;DHT22;11813;50.834;4.280;2023-09-18T04:50:24;20.50;99.90
23289;DHT22;11813;50.834;4.280;2023-09-18T04:52:52;20.50;99.90
23289;DHT22;11813;50.834;4.280;2023-09-18T04:55:19;20.40;99.90
23289;DHT22;11813;50.834;4.280;2023-09-18T04:57:45;20.50;99.90
23289;DHT22;11813;50.834;4.280;2023-09-18T05:00:11;20.40;99.90
23289;DHT22;11813;50.834;4.280;2023-09-18T05:02:39;20.40;99.90
23289;DHT22;11813;50.834;4.280;2023-09-18T05:05:06;20.40;99.90
23289;DHT22;11813;50.834;4.280;2023-09-18T05:07:34;20.40;99.90
23289;DHT22;11813;50.834;4.280;2023-09-18T05:10:00;20.40;99.90
23289;DHT22;11813;50.834;4.280;2023-09-18T05:12:26;20.40;99.90
23289;DHT22;11813;50.834;4.280;2023-09-18T05:14:51;20.30;99.90
23289;DHT22;11813;50.834;4.280;2023-09-18T05:17:17;20.30;99.90
23289;DHT22;11813;50.834;4.280;2023-09-18T05:19:44;20.20;99.90
23289;DHT22;11813;50.834;4.280;2023-09-18T05:22:10;20.20;99.90
23289;DHT22;11813;50.834;4.280;2023-09-18T05:24:37;20.10;99.90
23289;DHT22;11813;50.834;4.280;2023-09-18T05:27:02;20.10;99.90
23289;DHT22;11813;50.834;4.280;2023-09-18T05:29:28;20.10;99.90
23289;DHT22;11813;50.834;4.280;2023-09-18T05:31:54;20.00;99.90
23289;DHT22;11813;50.834;4.280;2023-09-18T05:34:19;20.00;99.90
23289;DHT22;11813;50.834;4.280;2023-09-18T05:36:45;20.00;99.90
23289;DHT22;11813;50.834;4.280;2023-09-18T05:39:11;20.10;99.90
23289;DHT22;11813;50.834;4.280;2023-09-18T05:41:38;20.10;99.90
23289;DHT22;11813;50.834;4.280;2023-09-18T05:44:04;20.10;99.90
23289;DHT22;11813;50.834;4.280;2023-09-18T05:46:34;20.00;99.90
23289;DHT22;11813;50.834;4.280;2023-09-18T05:49:01;20.10;99.90
23289;DHT22;11813;50.834;4.280;2023-09-18T05:51:26;20.00;99.90
23289;DHT22;11813;50.834;4.280;2023-09-18T05:53:52;20.00;99.90
23289;DHT22;11813;50.834;4.280;2023-09-18T05:56:18;20.00;99.90
23289;DHT22;11813;50.834;4.280;2023-09-18T05:58:44;20.10;99.90
23289;DHT22;11813;50.834;4.280;2023-09-18T06:01:10;20.00;99.90
23289;DHT22;11813;50.834;4.280;2023-09-18T06:03:35;20.00;99.90
23289;DHT22;11813;50.834;4.280;2023-09-18T06:06:10;20.00;99.90
23289;DHT22;11813;50.834;4.280;2023-09-18T06:08:36;19.90;99.90
23289;DHT22;11813;50.834;4.280;2023-09-18T06:11:01;19.90;99.90
23289;DHT22;11813;50.834;4.280;2023-09-18T06:13:27;19.90;99.90
23289;DHT22;11813;50.834;4.280;2023-09-18T06:15:56;19.90;99.90
23289;DHT22;11813;50.834;4.280;2023-09-18T06:18:22;19.90;99.90
23289;DHT22;11813;50.834;4.280;2023-09-18T06:20:48;19.90;99.90
23289;DHT22;11813;50.834;4.280;2023-09-18T06:23:14;20.00;99.90
23289;DHT22;11813;50.834;4.280;2023-09-18T06:25:40;20.10;99.90
23289;DHT22;11813;50.834;4.280;2023-09-18T06:28:06;20.10;99.90
23289;DHT22;11813;50.834;4.280;2023-09-18T06:30:32;20.20;99.90
23289;DHT22;11813;50.834;4.280;2023-09-18T06:33:02;20.20;99.90
23289;DHT22;11813;50.834;4.280;2023-09-18T06:35:29;20.20;99.90
23289;DHT22;11813;50.834;4.280;2023-09-18T06:37:55;20.00;99.90
23289;DHT22;11813;50.834;4.280;2023-09-18T06:40:24;19.90;99.90
23289;DHT22;11813;50.834;4.280;2023-09-18T06:42:50;19.80;99.90
23289;DHT22;11813;50.834;4.280;2023-09-18T06:45:17;19.70;99.90
23289;DHT22;11813;50.834;4.280;2023-09-18T06:47:42;19.80;99.90
23289;DHT22;11813;50.834;4.280;2023-09-18T06:50:08;19.80;99.90
23289;DHT22;11813;50.834;4.280;2023-09-18T06:52:35;19.80;99.90
23289;DHT22;11813;50.834;4.280;2023-09-18T06:55:00;19.80;99.90
23289;DHT22;11813;50.834;4.280;2023-09-18T06:57:26;19.90;99.90
23289;DHT22;11813;50.834;4.280;2023-09-18T06:59:53;20.00;99.90
23289;DHT22;11813;50.834;4.280;2023-09-18T07:02:18;20.00;99.90
23289;DHT22;11813;50.834;4.280;2023-09-18T07:04:44;20.00;99.90
23289;DHT22;11813;50.834;4.280;2023-09-18T07:07:13;20.10;99.90
23289;DHT22;11813;50.834;4.280;2023-09-18T07:09:40;20.00;99.90
23289;DHT22;11813;50.834;4.280;2023-09-18T07:12:07;20.10;99.90
23289;DHT22;11813;50.834;4.280;2023-09-18T07:14:34;20.00;99.90
23289;DHT22;11813;50.834;4.280;2023-09-18T07:17:00;20.10;99.90
23289;DHT22;11813;50.834;4.280;2023-09-18T07:19:26;20.00;99.90
23289;DHT22;11813;50.834;4.280;2023-09-18T07:21:52;20.10;99.90
23289;DHT22;11813;50.834;4.280;2023-09-18T07:24:17;20.10;99.90
23289;DHT22;11813;50.834;4.280;2023-09-18T07:26:47;20.10;99.90
23289;DHT22;11813;50.834;4.280;2023-09-18T07:29:16;20.20;99.90
23289;DHT22;11813;50.834;4.280;2023-09-18T07:31:46;20.10;99.90
23289;DHT22;11813;50.834;4.280;2023-09-18T07:34:13;20.20;99.90
23289;DHT22;11813;50.834;4.280;2023-09-18T07:36:39;20.20;99.90
23289;DHT22;11813;50.834;4.280;2023-09-18T07:39:05;20.30;99.90
23289;DHT22;11813;50.834;4.280;2023-09-18T07:41:31;20.50;99.90
23289;DHT22;11813;50.834;4.280;2023-09-18T07:43:57;20.50;99.90
23289;DHT22;11813;50.834;4.280;2023-09-18T07:46:24;20.50;99.90
23289;DHT22;11813;50.834;4.280;2023-09-18T07:48:50;20.60;99.90
23289;DHT22;11813;50.834;4.280;2023-09-18T07:51:16;20.60;99.90
23289;DHT22;11813;50.834;4.280;2023-09-18T07:53:42;20.70;99.90
23289;DHT22;11813;50.834;4.280;2023-09-18T07:56:08;20.90;99.90
23289;DHT22;11813;50.834;4.280;2023-09-18T07:58:34;20.90;99.90
23289;DHT22;11813;50.834;4.280;2023-09-18T08:01:03;20.90;99.90
23289;DHT22;11813;50.834;4.280;2023-09-18T08:03:32;20.90;99.90
23289;DHT22;11813;50.834;4.280;2023-09-18T08:05:57;20.80;99.90
23289;DHT22;11813;50.834;4.280;2023-09-18T08:08:23;20.70;99.90
23289;DHT22;11813;50.834;4.280;2023-09-18T08:10:50;20.70;99.90
23289;DHT22;11813;50.834;4.280;2023-09-18T08:13:16;20.80;99.90
23289;DHT22;11813;50.834;4.280;2023-09-18T08:15:43;20.90;99.90
23289;DHT22;11813;50.834;4.280;2023-09-18T08:18:09;21.00;99.90
23289;DHT22;11813;50.834;4.280;2023-09-18T08:20:39;21.00;99.90
23289;DHT22;11813;50.834;4.280;2023-09-18T08:23:05;21.00;99.90
23289;DHT22;11813;50.834;4.280;2023-09-18T08:25:31;21.10;99.90
23289;DHT22;11813;50.834;4.280;2023-09-18T08:27:57;21.10;99.90
23289;DHT22;11813;50.834;4.280;2023-09-18T08:30:23;21.00;99.90
23289;DHT22;11813;50.834;4.280;2023-09-18T08:32:49;20.90;99.90
23289;DHT22;11813;50.834;4.280;2023-09-18T08:35:14;20.80;99.90
23289;DHT22;11813;50.834;4.280;2023-09-18T08:37:41;20.80;99.90
23289;DHT22;11813;50.834;4.280;2023-09-18T08:40:11;20.80;99.90
23289;DHT22;11813;50.834;4.280;2023-09-18T08:42:40;20.80;99.90
23289;DHT22;11813;50.834;4.280;2023-09-18T08:45:08;20.70;99.90
23289;DHT22;11813;50.834;4.280;2023-09-18T08:47:38;20.80;99.90
23289;DHT22;11813;50.834;4.280;2023-09-18T08:50:08;20.80;99.90
23289;DHT22;11813;50.834;4.280;2023-09-18T08:52:35;20.80;99.90
23289;DHT22;11813;50.834;4.280;2023-09-18T08:55:02;20.90;99.90
23289;DHT22;11813;50.834;4.280;2023-09-18T08:57:29;20.90;99.90
23289;DHT22;11813;50.834;4.280;2023-09-18T08:59:56;20.90;99.90
23289;DHT22;11813;50.834;4.280;2023-09-18T09:02:23;20.80;99.90
23289;DHT22;11813;50.834;4.280;2023-09-18T09:04:49;20.60;99.90
23289;DHT22;11813;50.834;4.280;2023-09-18T09:07:15;20.50;99.90
23289;DHT22;11813;50.834;4.280;2023-09-18T09:09:40;20.60;99.90
23289;DHT22;11813;50.834;4.280;2023-09-18T09:12:08;20.60;99.90
23289;DHT22;11813;50.834;4.280;2023-09-18T09:14:33;20.50;99.90
23289;DHT22;11813;50.834;4.280;2023-09-18T09:16:59;20.50;99.90
23289;DHT22;11813;50.834;4.280;2023-09-18T09:19:32;20.50;99.90
23289;DHT22;11813;50.834;4.280;2023-09-18T09:22:01;20.50;99.90
23289;DHT22;11813;50.834;4.280;2023-09-18T09:24:43;20.50;99.90
23289;DHT22;11813;50.834;4.280;2023-09-18T09:27:09;20.60;99.90
23289;DHT22;11813;50.834;4.280;2023-09-18T09:29:36;20.60;99.90
23289;DHT22;11813;50.834;4.280;2023-09-18T09:32:15;20.70;99.90
23289;DHT22;11813;50.834;4.280;2023-09-18T09:34:42;20.80;99.90
23289;DHT22;11813;50.834;4.280;2023-09-18T09:37:08;20.80;99.90
23289;DHT22;11813;50.834;4.280;2023-09-18T09:39:34;20.80;99.90
23289;DHT22;11813;50.834;4.280;2023-09-18T09:42:01;20.70;99.90
23289;DHT22;11813;50.834;4.280;2023-09-18T09:44:31;20.70;99.90
23289;DHT22;11813;50.834;4.280;2023-09-18T09:46:59;20.60;99.90
23289;DHT22;11813;50.834;4.280;2023-09-18T09:49:25;20.70;99.90
23289;DHT22;11813;50.834;4.280;2023-09-18T09:51:53;20.70;99.90
23289;DHT22;11813;50.834;4.280;2023-09-18T09:54:39;20.60;99.90
23289;DHT22;11813;50.834;4.280;2023-09-18T09:57:06;20.60;99.90
23289;DHT22;11813;50.834;4.280;2023-09-18T09:59:32;20.50;99.90
23289;DHT22;11813;50.834;4.280;2023-09-18T10:02:00;20.60;99.90
23289;DHT22;11813;50.834;4.280;2023-09-18T10:04:28;20.70;99.90
23289;DHT22;11813;50.834;4.280;2023-09-18T10:07:07;20.60;99.90
23289;DHT22;11813;50.834;4.280;2023-09-18T10:09:41;20.60;99.90
23289;DHT22;11813;50.834;4.280;2023-09-18T10:12:12;20.70;99.90
23289;DHT22;11813;50.834;4.280;2023-09-18T10:14:41;20.60;99.90
23289;DHT22;11813;50.834;4.280;2023-09-18T10:17:27;20.60;99.90
23289;DHT22;11813;50.834;4.280;2023-09-18T10:20:02;20.60;99.90
23289;DHT22;11813;50.834;4.280;2023-09-18T10:22:44;20.70;99.90
23289;DHT22;11813;50.834;4.280;2023-09-18T10:25:14;20.80;99.90
23289;DHT22;11813;50.834;4.280;2023-09-18T10:27:52;20.60;99.90
23289;DHT22;11813;50.834;4.280;2023-09-18T10:30:20;20.60;99.90
23289;DHT22;11813;50.834;4.280;2023-09-18T10:32:48;20.60;99.90
23289;DHT22;11813;50.834;4.280;2023-09-18T10:35:15;20.50;99.90
23289;DHT22;11813;50.834;4.280;2023-09-18T10:37:45;20.40;99.90
23289;DHT22;11813;50.834;4.280;2023-09-18T10:40:11;20.50;99.90
23289;DHT22;11813;50.834;4.280;2023-09-18T10:42:41;20.60;99.90
23289;DHT22;11813;50.834;4.280;2023-09-18T10:45:09;20.70;99.90
23289;DHT22;11813;50.834;4.280;2023-09-18T10:47:38;20.90;99.90
23289;DHT22;11813;50.834;4.280;2023-09-18T10:50:06;21.10;99.90
23289;DHT22;11813;50.834;4.280;2023-09-18T10:52:34;21.20;99.90
23289;DHT22;11813;50.834;4.280;2023-09-18T10:55:01;21.50;99.90
23289;DHT22;11813;50.834;4.280;2023-09-18T10:57:33;21.90;99.90
23289;DHT22;11813;50.834;4.280;2023-09-18T11:00:00;22.30;99.90
23289;DHT22;11813;50.834;4.280;2023-09-18T11:02:27;22.90;99.90
23289;DHT22;11813;50.834;4.280;2023-09-18T11:04:54;23.20;99.90
23289;DHT22;11813;50.834;4.280;2023-09-18T11:07:23;23.40;99.90
23289;DHT22;11813;50.834;4.280;2023-09-18T11:09:50;23.70;99.90
23289;DHT22;11813;50.834;4.280;2023-09-18T11:12:17;23.70;99.90
23289;DHT22;11813;50.834;4.280;2023-09-18T11:14:44;23.70;99.90
23289;DHT22;11813;50.834;4.280;2023-09-18T11:17:33;24.00;99.90
23289;DHT22;11813;50.834;4.280;2023-09-18T11:20:18;24.00;99.90
23289;DHT22;11813;50.834;4.280;2023-09-18T11:22:55;23.80;99.90
23289;DHT22;11813;50.834;4.280;2023-09-18T11:28:23;23.30;99.90
23289;DHT22;11813;50.834;4.280;2023-09-18T11:33:39;22.70;99.90
23289;DHT22;11813;50.834;4.280;2023-09-18T11:36:05;22.70;99.90
23289;DHT22;11813;50.834;4.280;2023-09-18T11:38:33;22.40;99.90
23289;DHT22;11813;50.834;4.280;2023-09-18T11:40:59;22.60;99.90
23289;DHT22;11813;50.834;4.280;2023-09-18T11:43:28;23.00;99.90
23289;DHT22;11813;50.834;4.280;2023-09-18T11:46:01;23.30;99.90
23289;DHT22;11813;50.834;4.280;2023-09-18T11:48:30;23.40;99.90
23289;DHT22;11813;50.834;4.280;2023-09-18T11:50:59;23.50;99.90
23289;DHT22;11813;50.834;4.280;2023-09-18T11:53:28;23.70;99.90
23289;DHT22;11813;50.834;4.280;2023-09-18T11:55:54;23.80;99.90
23289;DHT22;11813;50.834;4.280;2023-09-18T11:58:21;23.80;99.90
23289;DHT22;11813;50.834;4.280;2023-09-18T12:00:49;23.80;99.90
23289;DHT22;11813;50.834;4.280;2023-09-18T12:05:58;24.60;99.90
23289;DHT22;11813;50.834;4.280;2023-09-18T12:08:25;24.80;99.90
23289;DHT22;11813;50.834;4.280;2023-09-18T12:10:53;24.90;99.90
23289;DHT22;11813;50.834;4.280;2023-09-18T12:13:18;24.90;99.90
23289;DHT22;11813;50.834;4.280;2023-09-18T12:15:44;25.10;99.90
23289;DHT22;11813;50.834;4.280;2023-09-18T12:18:10;25.30;99.90
23289;DHT22;11813;50.834;4.280;2023-09-18T12:20:44;25.80;99.90
23289;DHT22;11813;50.834;4.280;2023-09-18T12:23:09;26.00;99.90
23289;DHT22;11813;50.834;4.280;2023-09-18T12:25:35;26.20;99.90
23289;DHT22;11813;50.834;4.280;2023-09-18T12:28:01;26.10;99.90
23289;DHT22;11813;50.834;4.280;2023-09-18T12:30:29;26.30;99.90
23289;DHT22;11813;50.834;4.280;2023-09-18T12:32:59;26.50;99.90
23289;DHT22;11813;50.834;4.280;2023-09-18T12:35:29;26.20;99.90
23289;DHT22;11813;50.834;4.280;2023-09-18T12:37:59;25.80;99.90
23289;DHT22;11813;50.834;4.280;2023-09-18T12:40:30;25.40;99.90
23289;DHT22;11813;50.834;4.280;2023-09-18T12:42:58;25.40;99.90
23289;DHT22;11813;50.834;4.280;2023-09-18T12:45:25;25.40;99.90
23289;DHT22;11813;50.834;4.280;2023-09-18T12:47:53;25.60;99.90
23289;DHT22;11813;50.834;4.280;2023-09-18T12:50:19;26.00;99.90
23289;DHT22;11813;50.834;4.280;2023-09-18T12:52:45;26.20;99.90
23289;DHT22;11813;50.834;4.280;2023-09-18T12:55:21;26.30;99.90
23289;DHT22;11813;50.834;4.280;2023-09-18T12:57:47;26.40;99.90
23289;DHT22;11813;50.834;4.280;2023-09-18T13:00:16;26.80;99.90
23289;DHT22;11813;50.834;4.280;2023-09-18T13:02:45;26.70;99.90
23289;DHT22;11813;50.834;4.280;2023-09-18T13:05:11;26.70;99.90
23289;DHT22;11813;50.834;4.280;2023-09-18T13:07:46;27.00;99.90
23289;DHT22;11813;50.834;4.280;2023-09-18T13:10:13;27.00;99.90
23289;DHT22;11813;50.834;4.280;2023-09-18T13:12:46;26.80;99.90
23289;DHT22;11813;50.834;4.280;2023-09-18T13:15:12;26.40;99.90
23289;DHT22;11813;50.834;4.280;2023-09-18T13:17:43;26.20;99.90
23289;DHT22;11813;50.834;4.280;2023-09-18T13:20:17;26.00;99.90
23289;DHT22;11813;50.834;4.280;2023-09-18T13:22:48;25.80;99.90
23289;DHT22;11813;50.834;4.280;2023-09-18T13:25:20;25.90;99.90
23289;DHT22;11813;50.834;4.280;2023-09-18T13:27:47;26.10;99.90
23289;DHT22;11813;50.834;4.280;2023-09-18T13:30:12;26.20;99.90
23289;DHT22;11813;50.834;4.280;2023-09-18T13:32:42;26.10;99.90
23289;DHT22;11813;50.834;4.280;2023-09-18T13:35:09;26.40;99.90
23289;DHT22;11813;50.834;4.280;2023-09-18T13:37:37;26.30;99.90
23289;DHT22;11813;50.834;4.280;2023-09-18T13:40:05;26.70;99.90
23289;DHT22;11813;50.834;4.280;2023-09-18T13:42:35;27.00;99.90
23289;DHT22;11813;50.834;4.280;2023-09-18T13:45:01;26.80;99.90
23289;DHT22;11813;50.834;4.280;2023-09-18T13:47:29;26.40;99.90
23289;DHT22;11813;50.834;4.280;2023-09-18T13:49:55;26.20;99.90
23289;DHT22;11813;50.834;4.280;2023-09-18T13:52:28;25.90;99.90
23289;DHT22;11813;50.834;4.280;2023-09-18T13:54:54;25.60;99.90
23289;DHT22;11813;50.834;4.280;2023-09-18T13:57:20;25.40;99.90
23289;DHT22;11813;50.834;4.280;2023-09-18T13:59:47;25.10;99.90
23289;DHT22;11813;50.834;4.280;2023-09-18T14:02:15;25.00;99.90
23289;DHT22;11813;50.834;4.280;2023-09-18T14:04:41;24.80;99.90
23289;DHT22;11813;50.834;4.280;2023-09-18T14:07:07;24.60;99.90
23289;DHT22;11813;50.834;4.280;2023-09-18T14:09:33;24.40;99.90
23289;DHT22;11813;50.834;4.280;2023-09-18T14:11:59;24.40;99.90
23289;DHT22;11813;50.834;4.280;2023-09-18T14:14:25;24.40;99.90
23289;DHT22;11813;50.834;4.280;2023-09-18T14:16:51;24.20;99.90
23289;DHT22;11813;50.834;4.280;2023-09-18T14:19:17;24.20;99.90
23289;DHT22;11813;50.834;4.280;2023-09-18T14:21:43;24.10;99.90
23289;DHT22;11813;50.834;4.280;2023-09-18T14:24:09;23.90;99.90
23289;DHT22;11813;50.834;4.280;2023-09-18T14:26:35;23.90;99.90
23289;DHT22;11813;50.834;4.280;2023-09-18T14:29:08;23.90;99.90
23289;DHT22;11813;50.834;4.280;2023-09-18T14:31:36;23.90;99.90
23289;DHT22;11813;50.834;4.280;2023-09-18T14:34:02;23.70;99.90
23289;DHT22;11813;50.834;4.280;2023-09-18T14:36:28;23.50;99.90
23289;DHT22;11813;50.834;4.280;2023-09-18T14:38:54;22.60;99.90
23289;DHT22;11813;50.834;4.280;2023-09-18T14:41:21;21.90;99.90
23289;DHT22;11813;50.834;4.280;2023-09-18T14:43:46;21.30;99.90
23289;DHT22;11813;50.834;4.280;2023-09-18T14:46:13;21.00;99.90
23289;DHT22;11813;50.834;4.280;2023-09-18T14:48:38;20.80;99.90
23289;DHT22;11813;50.834;4.280;2023-09-18T14:51:05;20.50;99.90
23289;DHT22;11813;50.834;4.280;2023-09-18T14:53:32;20.50;99.90
23289;DHT22;11813;50.834;4.280;2023-09-18T14:55:59;20.30;99.90
23289;DHT22;11813;50.834;4.280;2023-09-18T14:58:25;20.30;99.90
23289;DHT22;11813;50.834;4.280;2023-09-18T15:00:51;20.40;99.90
23289;DHT22;11813;50.834;4.280;2023-09-18T15:03:17;20.40;99.90
23289;DHT22;11813;50.834;4.280;2023-09-18T15:05:43;20.40;99.90
23289;DHT22;11813;50.834;4.280;2023-09-18T15:08:08;20.40;99.90
23289;DHT22;11813;50.834;4.280;2023-09-18T15:10:34;20.40;99.90
23289;DHT22;11813;50.834;4.280;2023-09-18T15:13:00;20.50;99.90
23289;DHT22;11813;50.834;4.280;2023-09-18T15:15:25;20.60;99.90
23289;DHT22;11813;50.834;4.280;2023-09-18T15:17:51;20.60;99.90
23289;DHT22;11813;50.834;4.280;2023-09-18T15:20:18;20.70;99.90
23289;DHT22;11813;50.834;4.280;2023-09-18T15:22:44;20.70;99.90
23289;DHT22;11813;50.834;4.280;2023-09-18T15:25:10;20.70;99.90
23289;DHT22;11813;50.834;4.280;2023-09-18T15:27:36;20.80;99.90
23289;DHT22;11813;50.834;4.280;2023-09-18T15:30:05;20.80;99.90
23289;DHT22;11813;50.834;4.280;2023-09-18T15:32:53;20.80;99.90
23289;DHT22;11813;50.834;4.280;2023-09-18T15:35:23;20.70;99.90
23289;DHT22;11813;50.834;4.280;2023-09-18T15:37:49;20.70;99.90
23289;DHT22;11813;50.834;4.280;2023-09-18T15:40:16;20.60;99.90
23289;DHT22;11813;50.834;4.280;2023-09-18T15:42:44;20.60;99.90
23289;DHT22;11813;50.834;4.280;2023-09-18T15:45:10;20.70;99.90